createdAt,value
2022-08-10T00:01:34.668Z,15.20
2022-08-10T00:04:02.453Z,15.20
2022-08-10T00:06:29.845Z,15.20
2022-08-10T00:08:57.224Z,15.20
2022-08-10T00:11:25.283Z,15.20
2022-08-10T00:13:53.026Z,15.20
2022-08-10T00:16:20.251Z,15.20
2022-08-10T00:18:47.492Z,15.10
2022-08-10T00:21:15.320Z,15.10
2022-08-10T00:23:42.461Z,15.10
2022-08-10T00:26:10.026Z,15.10
2022-08-10T00:28:39.280Z,15.00
2022-08-10T00:31:06.727Z,14.90
2022-08-10T00:33:34.209Z,14.90
2022-08-10T00:36:01.360Z,14.80
2022-08-10T00:38:28.605Z,14.80
2022-08-10T00:40:55.905Z,14.70
2022-08-10T00:43:24.133Z,14.70
2022-08-10T00:45:58.904Z,14.70
2022-08-10T00:48:29.154Z,14.70
2022-08-10T00:50:57.914Z,14.80
2022-08-10T00:53:26.624Z,14.70
2022-08-10T00:57:07.848Z,14.70
2022-08-10T00:58:42.218Z,14.60
2022-08-10T01:02:09.756Z,14.60
2022-08-10T01:04:54.404Z,14.50
2022-08-10T01:07:06.540Z,14.50
2022-08-10T01:09:55.891Z,14.40
2022-08-10T01:12:55.140Z,14.40
2022-08-10T01:15:41.404Z,14.50
2022-08-10T01:18:15.696Z,14.40
2022-08-10T01:21:04.060Z,14.50
2022-08-10T01:23:57.674Z,14.40
2022-08-10T01:26:33.842Z,14.40
2022-08-10T01:29:27.969Z,14.30
2022-08-10T01:31:59.174Z,14.30
2022-08-10T01:34:53.111Z,14.30
2022-08-10T01:37:24.471Z,14.20
2022-08-10T01:39:57.099Z,14.10
2022-08-10T01:42:26.063Z,14.20
2022-08-10T01:44:56.720Z,14.10
2022-08-10T01:47:49.695Z,14.10
2022-08-10T01:50:59.426Z,14.00
2022-08-10T01:53:39.947Z,14.00
2022-08-10T01:56:11.751Z,14.00
2022-08-10T01:58:43.858Z,14.00
2022-08-10T02:01:17.204Z,14.00
2022-08-10T02:04:04.405Z,14.10
2022-08-10T02:06:37.210Z,14.10
2022-08-10T02:09:08.101Z,14.10
2022-08-10T02:12:05.430Z,14.10
2022-08-10T02:14:33.062Z,14.10
2022-08-10T02:17:05.469Z,14.10
2022-08-10T02:19:35.406Z,14.20
2022-08-10T02:22:36.623Z,14.20
2022-08-10T02:24:52.864Z,14.20
2022-08-10T02:27:24.406Z,14.20
2022-08-10T02:29:53.743Z,14.10
2022-08-10T02:32:38.154Z,14.00
2022-08-10T02:35:13.170Z,14.00
2022-08-10T02:37:51.650Z,14.00
2022-08-10T02:45:08.250Z,13.90
2022-08-10T02:45:15.579Z,13.90
2022-08-10T02:46:13.288Z,13.80
2022-08-10T02:48:52.343Z,13.80
2022-08-10T02:52:07.174Z,13.80
2022-08-10T02:54:22.212Z,13.70
2022-08-10T02:57:01.164Z,13.60
2022-08-10T02:59:40.072Z,13.60
2022-08-10T03:02:12.632Z,13.60
2022-08-10T03:04:56.043Z,13.50
2022-08-10T03:07:43.957Z,13.50
2022-08-10T03:10:18.686Z,13.40
2022-08-10T03:12:51.096Z,13.40
2022-08-10T03:15:22.254Z,13.40
2022-08-10T03:17:58.192Z,13.30
2022-08-10T03:20:40.079Z,13.30
2022-08-10T03:23:15.262Z,13.30
2022-08-10T03:25:52.978Z,13.20
2022-08-10T03:28:25.894Z,13.20
2022-08-10T03:30:54.132Z,13.20
2022-08-10T03:33:24.336Z,13.30
2022-08-10T03:36:43.935Z,13.30
2022-08-10T03:38:41.092Z,13.40
2022-08-10T03:41:15.919Z,13.40
2022-08-10T03:43:47.973Z,13.40
2022-08-10T03:46:19.209Z,13.40
2022-08-10T03:48:50.211Z,13.30
2022-08-10T03:51:19.982Z,13.20
2022-08-10T03:54:04.805Z,13.20
2022-08-10T03:56:37.527Z,13.20
2022-08-10T03:59:07.338Z,13.20
2022-08-10T04:02:41.829Z,13.20
2022-08-10T04:04:26.299Z,13.20
2022-08-10T04:06:56.262Z,13.10
2022-08-10T04:09:42.966Z,13.10
2022-08-10T04:12:14.510Z,13.10
2022-08-10T04:14:49.368Z,13.00
2022-08-10T04:17:18.366Z,13.10
2022-08-10T04:20:08.113Z,13.10
2022-08-10T04:22:37.967Z,13.00
2022-08-10T04:25:06.651Z,13.20
2022-08-10T04:27:34.803Z,13.20
2022-08-10T04:30:02.051Z,13.30
2022-08-10T04:32:31.953Z,13.40
2022-08-10T04:35:00.193Z,13.50
2022-08-10T04:37:28.331Z,13.60
2022-08-10T04:39:56.615Z,13.70
2022-08-10T04:42:24.521Z,13.80
2022-08-10T04:44:52.139Z,13.90
2022-08-10T04:47:57.703Z,14.00
2022-08-10T04:50:08.131Z,14.10
2022-08-10T04:52:35.796Z,14.20
2022-08-10T04:55:03.391Z,14.40
2022-08-10T04:57:30.821Z,14.40
2022-08-10T04:59:58.167Z,14.50
2022-08-10T05:02:31.143Z,14.60
2022-08-10T05:05:06.632Z,14.70
2022-08-10T05:07:41.016Z,14.80
2022-08-10T05:10:21.786Z,15.00
2022-08-10T05:12:49.061Z,15.00
2022-08-10T05:15:18.450Z,15.20
2022-08-10T05:18:09.263Z,15.30
2022-08-10T05:20:35.198Z,15.40
2022-08-10T05:23:02.371Z,15.60
2022-08-10T05:25:32.920Z,15.80
2022-08-10T05:28:06.712Z,16.00
2022-08-10T05:30:34.732Z,16.00
2022-08-10T05:33:06.512Z,16.20
2022-08-10T05:35:56.417Z,16.30
2022-08-10T05:38:27.968Z,16.30
2022-08-10T05:40:59.094Z,16.40
2022-08-10T05:43:27.317Z,16.60
2022-08-10T05:46:18.652Z,16.80
2022-08-10T05:48:59.453Z,16.90
2022-08-10T05:51:29.024Z,17.10
2022-08-10T05:54:04.161Z,17.30
2022-08-10T05:56:55.249Z,17.60
2022-08-10T06:00:34.335Z,17.90
2022-08-10T06:02:33.564Z,18.80
2022-08-10T06:05:08.815Z,21.50
2022-08-10T06:07:41.644Z,24.30
2022-08-10T06:10:13.709Z,25.60
2022-08-10T06:12:55.021Z,27.80
2022-08-10T06:15:51.866Z,29.50
2022-08-10T06:18:15.562Z,31.20
2022-08-10T06:20:43.932Z,31.90
2022-08-10T06:23:12.250Z,32.20
2022-08-10T06:26:09.123Z,32.60
2022-08-10T06:28:31.488Z,33.10
2022-08-10T06:31:00.952Z,33.70
2022-08-10T06:33:31.832Z,34.50
2022-08-10T06:36:00.911Z,35.40
2022-08-10T06:38:33.012Z,36.10
2022-08-10T06:41:05.221Z,36.00
2022-08-10T06:43:38.526Z,36.10
2022-08-10T06:46:12.806Z,36.70
2022-08-10T06:48:51.069Z,37.30
2022-08-10T06:51:24.620Z,37.70
2022-08-10T06:53:55.634Z,37.20
2022-08-10T06:56:37.586Z,37.90
2022-08-10T06:59:44.420Z,38.20
2022-08-10T07:02:19.748Z,37.70
2022-08-10T07:05:02.470Z,38.10
2022-08-10T07:07:34.903Z,38.70
2022-08-10T07:10:02.572Z,38.50
2022-08-10T07:12:31.978Z,38.30
2022-08-10T07:15:01.402Z,38.30
2022-08-10T07:17:33.810Z,38.90
2022-08-10T07:20:07.351Z,39.60
2022-08-10T07:23:01.140Z,39.60
2022-08-10T07:25:29.533Z,39.70
2022-08-10T07:28:01.567Z,40.00
2022-08-10T07:30:32.354Z,40.00
2022-08-10T07:33:01.696Z,40.00
2022-08-10T07:35:37.308Z,40.00
2022-08-10T07:38:18.217Z,40.40
2022-08-10T07:40:49.342Z,40.30
2022-08-10T07:43:19.162Z,40.30
2022-08-10T07:45:48.235Z,40.20
2022-08-10T07:48:29.104Z,39.90
2022-08-10T07:51:02.255Z,40.50
2022-08-10T07:53:34.834Z,40.50
2022-08-10T07:56:16.577Z,40.30
2022-08-10T07:58:53.083Z,39.20
2022-08-10T08:01:27.496Z,39.40
2022-08-10T08:04:05.801Z,40.10
2022-08-10T08:06:42.067Z,40.20
2022-08-10T08:09:11.012Z,40.10
2022-08-10T08:11:44.200Z,40.70
2022-08-10T08:14:14.257Z,40.80
2022-08-10T08:16:45.709Z,40.00
2022-08-10T08:19:35.815Z,40.00
2022-08-10T08:24:10.980Z,40.10
2022-08-10T08:24:52.690Z,39.30
2022-08-10T08:27:21.374Z,38.40
2022-08-10T08:29:50.811Z,39.00
2022-08-10T08:32:23.816Z,39.70
2022-08-10T08:34:58.038Z,40.10
2022-08-10T08:38:32.768Z,39.60
2022-08-10T08:40:25.276Z,40.10
2022-08-10T08:43:13.293Z,39.50
2022-08-10T08:46:02.340Z,38.10
2022-08-10T08:48:57.173Z,37.40
2022-08-10T08:52:06.181Z,36.00
2022-08-10T08:54:41.254Z,34.50
2022-08-10T08:57:49.001Z,33.90
2022-08-10T09:00:10.831Z,34.00
2022-08-10T09:02:54.413Z,33.80
2022-08-10T09:05:58.955Z,33.40
2022-08-10T09:08:50.763Z,33.00
2022-08-10T09:11:47.631Z,32.90
2022-08-10T09:14:38.464Z,32.50
2022-08-10T09:17:09.089Z,32.10
2022-08-10T09:20:03.786Z,32.10
2022-08-10T09:22:38.565Z,31.80
2022-08-10T09:25:26.729Z,31.70
2022-08-10T09:28:09.859Z,31.90
2022-08-10T09:31:18.863Z,32.10
2022-08-10T09:36:26.783Z,32.00
2022-08-10T09:37:01.983Z,31.80
2022-08-10T09:40:06.720Z,31.50
2022-08-10T09:43:21.685Z,31.60
2022-08-10T09:45:50.161Z,31.30
2022-08-10T09:48:57.163Z,31.10
2022-08-10T09:51:50.843Z,31.00
2022-08-10T09:54:27.465Z,31.10
2022-08-10T09:57:54.835Z,31.30
2022-08-10T10:00:15.333Z,31.30
2022-08-10T10:03:08.717Z,31.40
2022-08-10T10:06:03.089Z,31.50
2022-08-10T10:08:43.326Z,30.90
2022-08-10T10:11:17.830Z,30.30
2022-08-10T10:14:11.822Z,30.40
2022-08-10T10:16:55.360Z,30.70
2022-08-10T10:20:02.367Z,30.80
2022-08-10T10:22:54.658Z,31.00
2022-08-10T10:25:51.119Z,31.10
2022-08-10T10:29:15.269Z,31.20
2022-08-10T10:31:49.340Z,31.20
2022-08-10T10:34:42.503Z,31.60
2022-08-10T10:37:13.502Z,31.80
2022-08-10T10:39:51.098Z,31.70
2022-08-10T10:42:51.152Z,31.80
2022-08-10T10:45:50.174Z,31.70
2022-08-10T10:48:39.883Z,31.20
2022-08-10T10:51:31.739Z,30.70
2022-08-10T10:54:10.919Z,30.60
2022-08-10T10:57:01.614Z,30.80
2022-08-10T10:59:55.203Z,31.10
2022-08-10T11:02:44.174Z,31.40
2022-08-10T11:05:20.640Z,31.70
2022-08-10T11:07:53.184Z,31.50
2022-08-10T11:10:32.414Z,31.30
2022-08-10T11:14:26.091Z,31.10
2022-08-10T11:16:06.848Z,30.80
2022-08-10T11:18:52.861Z,31.20
2022-08-10T11:21:43.933Z,31.30
2022-08-10T11:24:48.748Z,31.10
2022-08-10T11:27:22.440Z,30.90
2022-08-10T11:30:09.434Z,30.70
2022-08-10T11:33:03.383Z,30.70
2022-08-10T11:35:54.337Z,30.60
2022-08-10T11:38:47.196Z,30.80
2022-08-10T11:42:07.823Z,31.10
2022-08-10T11:44:54.133Z,31.30
2022-08-10T11:47:27.963Z,31.60
2022-08-10T11:50:00.251Z,31.60
2022-08-10T11:52:31.476Z,31.60
2022-08-10T11:55:07.520Z,31.60
2022-08-10T11:57:54.573Z,31.60
2022-08-10T12:00:24.931Z,31.70
2022-08-10T12:03:00.847Z,32.00
2022-08-10T12:05:52.122Z,32.00
2022-08-10T12:10:04.715Z,32.10
2022-08-10T12:11:23.882Z,32.00
2022-08-10T12:14:21.277Z,31.90
2022-08-10T12:16:55.276Z,32.00
2022-08-10T12:19:26.587Z,31.90
2022-08-10T12:22:06.034Z,31.50
2022-08-10T12:24:40.438Z,31.50
2022-08-10T12:27:27.178Z,31.40
2022-08-10T12:30:02.064Z,31.40
2022-08-10T12:32:56.681Z,31.40
2022-08-10T12:35:38.272Z,31.60
2022-08-10T12:38:24.872Z,31.80
2022-08-10T12:41:04.087Z,31.80
2022-08-10T12:44:04.331Z,31.60
2022-08-10T12:46:51.100Z,31.60
2022-08-10T12:49:28.908Z,31.30
2022-08-10T12:52:17.195Z,31.00
2022-08-10T12:54:46.084Z,31.00
2022-08-10T12:57:17.742Z,31.00
2022-08-10T12:59:51.516Z,31.10
2022-08-10T13:02:26.835Z,31.50
2022-08-10T13:04:57.782Z,31.50
2022-08-10T13:08:03.772Z,31.20
2022-08-10T13:10:21.239Z,31.10
2022-08-10T13:12:53.092Z,31.00
2022-08-10T13:15:45.101Z,30.80
2022-08-10T13:18:18.344Z,30.70
2022-08-10T13:20:52.417Z,30.40
2022-08-10T13:23:28.656Z,30.10
2022-08-10T13:26:00.020Z,29.90
2022-08-10T13:28:54.420Z,29.90
2022-08-10T13:32:03.717Z,30.30
2022-08-10T13:34:43.063Z,30.60
2022-08-10T13:37:15.351Z,30.70
2022-08-10T13:39:58.383Z,30.80
2022-08-10T13:42:34.065Z,31.10
2022-08-10T13:45:10.445Z,30.80
2022-08-10T13:47:48.947Z,30.90
2022-08-10T13:50:35.589Z,30.80
2022-08-10T13:53:14.738Z,30.90
2022-08-10T13:55:53.336Z,30.90
2022-08-10T13:58:31.205Z,31.20
2022-08-10T14:01:01.080Z,31.10
2022-08-10T14:03:34.127Z,31.10
2022-08-10T14:06:04.863Z,31.20
2022-08-10T14:08:33.180Z,31.30
2022-08-10T14:11:11.547Z,30.90
2022-08-10T14:13:50.746Z,30.70
2022-08-10T14:16:19.728Z,30.30
2022-08-10T14:18:49.833Z,30.10
2022-08-10T14:21:17.441Z,30.20
2022-08-10T14:23:51.873Z,30.50
2022-08-10T14:26:26.510Z,30.70
2022-08-10T14:28:57.403Z,30.90
2022-08-10T14:31:31.388Z,30.80
2022-08-10T14:33:59.864Z,30.50
2022-08-10T14:37:02.995Z,30.60
2022-08-10T14:39:49.228Z,30.70
2022-08-10T14:42:27.252Z,30.90
2022-08-10T14:45:02.767Z,31.00
2022-08-10T14:47:59.506Z,30.70
2022-08-10T14:50:32.530Z,30.30
2022-08-10T14:53:09.543Z,30.00
2022-08-10T14:55:57.576Z,30.00
2022-08-10T14:58:38.429Z,29.90
2022-08-10T15:01:07.915Z,29.60
2022-08-10T15:04:00.769Z,29.40
2022-08-10T15:06:32.008Z,29.30
2022-08-10T15:09:12.446Z,29.00
2022-08-10T15:12:15.253Z,28.90
2022-08-10T15:14:45.620Z,28.80
2022-08-10T15:17:23.863Z,28.70
2022-08-10T15:20:02.957Z,28.70
2022-08-10T15:22:40.867Z,28.40
2022-08-10T15:25:19.006Z,28.30
2022-08-10T15:27:54.659Z,28.40
2022-08-10T15:30:31.026Z,28.70
2022-08-10T15:33:59.534Z,28.90
2022-08-10T15:36:36.004Z,29.10
2022-08-10T15:39:16.601Z,29.10
2022-08-10T15:42:01.271Z,29.00
2022-08-10T15:44:38.415Z,28.90
2022-08-10T15:47:11.335Z,28.80
2022-08-10T15:49:48.556Z,28.40
2022-08-10T15:52:39.184Z,28.20
2022-08-10T15:55:42.364Z,28.20
2022-08-10T15:58:19.604Z,28.00
2022-08-10T16:00:56.453Z,27.90
2022-08-10T16:03:31.699Z,27.80
2022-08-10T16:06:03.204Z,27.80
2022-08-10T16:08:57.242Z,27.70
2022-08-10T16:11:43.881Z,27.70
2022-08-10T16:14:17.892Z,27.60
2022-08-10T16:16:50.699Z,27.50
2022-08-10T16:19:24.149Z,27.60
2022-08-10T16:22:02.485Z,27.40
2022-08-10T16:24:50.765Z,27.20
2022-08-10T16:27:24.927Z,27.00
2022-08-10T16:30:02.022Z,26.80
2022-08-10T16:32:32.372Z,26.80
2022-08-10T16:35:08.892Z,26.70
2022-08-10T16:37:59.004Z,26.60
2022-08-10T16:40:29.593Z,26.60
2022-08-10T16:42:59.028Z,26.40
2022-08-10T16:45:37.036Z,26.40
2022-08-10T16:48:06.257Z,26.30
2022-08-10T16:50:38.796Z,26.30
2022-08-10T16:53:11.185Z,26.10
2022-08-10T16:55:47.323Z,26.00
2022-08-10T16:58:25.551Z,25.80
2022-08-10T17:00:59.417Z,25.70
2022-08-10T17:04:06.992Z,25.70
2022-08-10T17:06:30.747Z,25.60
2022-08-10T17:09:00.880Z,25.50
2022-08-10T17:11:32.333Z,25.50
2022-08-10T17:14:01.568Z,25.40
2022-08-10T17:16:40.969Z,25.40
2022-08-10T17:19:13.809Z,25.30
2022-08-10T17:21:51.925Z,25.20
2022-08-10T17:24:24.269Z,25.00
2022-08-10T17:26:52.894Z,24.90
2022-08-10T17:29:57.545Z,24.80
2022-08-10T17:32:25.472Z,24.70
2022-08-10T17:34:57.968Z,24.50
2022-08-10T17:37:28.834Z,24.40
2022-08-10T17:40:03.545Z,24.20
2022-08-10T17:42:31.947Z,24.00
2022-08-10T17:45:00.319Z,23.80
2022-08-10T17:47:28.183Z,23.60
2022-08-10T17:49:58.321Z,23.50
2022-08-10T17:52:29.450Z,23.30
2022-08-10T17:55:02.279Z,23.10
2022-08-10T17:57:36.624Z,22.90
2022-08-10T18:00:06.992Z,22.70
2022-08-10T18:02:39.317Z,22.50
2022-08-10T18:05:09.730Z,22.40
2022-08-10T18:07:41.060Z,22.20
2022-08-10T18:10:11.652Z,22.00
2022-08-10T18:12:44.796Z,21.90
2022-08-10T18:15:16.102Z,21.70
2022-08-10T18:17:48.370Z,21.50
2022-08-10T18:20:20.155Z,21.40
2022-08-10T18:22:59.569Z,21.20
2022-08-10T18:25:32.858Z,21.00
2022-08-10T18:28:05.238Z,20.90
2022-08-10T18:30:37.281Z,20.80
2022-08-10T18:33:11.059Z,20.70
2022-08-10T18:35:39.926Z,20.50
2022-08-10T18:38:08.641Z,20.40
2022-08-10T18:40:40.238Z,20.30
2022-08-10T18:44:02.824Z,20.20
2022-08-10T18:46:01.129Z,20.00
2022-08-10T18:48:38.938Z,19.90
2022-08-10T18:51:08.159Z,19.80
2022-08-10T18:53:48.457Z,19.70
2022-08-10T18:56:48.441Z,19.60
2022-08-10T18:59:24.287Z,19.50
2022-08-10T19:01:55.801Z,19.40
2022-08-10T19:04:42.842Z,19.30
2022-08-10T19:07:49.806Z,19.30
2022-08-10T19:10:42.791Z,19.20
2022-08-10T19:13:22.002Z,19.20
2022-08-10T19:16:15.117Z,19.10
2022-08-10T19:19:21.633Z,19.00
2022-08-10T19:22:03.342Z,18.90
2022-08-10T19:24:54.947Z,18.90
2022-08-10T19:27:31.761Z,18.80
2022-08-10T19:30:08.343Z,18.70
2022-08-10T19:32:50.041Z,18.60
2022-08-10T19:36:03.735Z,18.50
2022-08-10T19:38:50.247Z,18.40
2022-08-10T19:41:32.691Z,18.40
2022-08-10T19:44:51.423Z,18.30
2022-08-10T19:47:48.930Z,18.20
2022-08-10T19:50:31.052Z,18.10
2022-08-10T19:53:25.234Z,18.10
2022-08-10T19:56:33.239Z,18.10
2022-08-10T19:59:16.511Z,18.10
2022-08-10T20:02:04.321Z,18.10
2022-08-10T20:04:41.241Z,18.00
2022-08-10T20:07:33.110Z,18.00
2022-08-10T20:10:21.606Z,18.00
2022-08-10T20:13:05.394Z,18.00
2022-08-10T20:15:42.262Z,17.80
2022-08-10T20:18:23.792Z,17.70
2022-08-10T20:21:13.185Z,17.60
2022-08-10T20:23:55.311Z,17.50
2022-08-10T20:26:31.278Z,17.40
2022-08-10T20:28:58.393Z,17.30
2022-08-10T20:31:39.146Z,17.30
2022-08-10T20:34:14.803Z,17.20
2022-08-10T20:36:57.741Z,17.10
2022-08-10T20:39:34.533Z,17.10
2022-08-10T20:42:06.716Z,17.00
2022-08-10T20:44:59.024Z,17.10
2022-08-10T20:47:54.854Z,17.10
2022-08-10T20:50:22.183Z,16.90
2022-08-10T20:52:51.753Z,16.90
2022-08-10T20:55:22.906Z,16.80
2022-08-10T20:57:57.454Z,16.70
2022-08-10T21:00:32.167Z,16.70
2022-08-10T21:03:08.364Z,16.60
2022-08-10T21:06:41.077Z,16.50
2022-08-10T21:09:29.514Z,16.50
2022-08-10T21:12:16.619Z,16.40
2022-08-10T21:15:00.886Z,16.40
2022-08-10T21:18:03.232Z,16.30
2022-08-10T21:20:47.769Z,16.30
2022-08-10T21:23:30.639Z,16.30
2022-08-10T21:26:21.093Z,16.20
2022-08-10T21:29:00.809Z,16.00
2022-08-10T21:31:38.764Z,15.90
2022-08-10T21:34:32.085Z,15.80
2022-08-10T21:37:12.359Z,15.80
2022-08-10T21:40:02.868Z,15.80
2022-08-10T21:43:00.744Z,15.80
2022-08-10T21:45:59.087Z,15.80
2022-08-10T21:49:14.589Z,15.70
2022-08-10T21:52:25.342Z,15.70
2022-08-10T21:55:24.379Z,15.60
2022-08-10T21:58:37.506Z,15.70
2022-08-10T22:01:39.289Z,15.70
2022-08-10T22:04:27.719Z,15.70
2022-08-10T22:07:18.606Z,15.70
2022-08-10T22:10:09.784Z,15.70
2022-08-10T22:13:01.849Z,15.70
2022-08-10T22:16:10.668Z,15.60
2022-08-10T22:19:04.431Z,15.50
2022-08-10T22:22:27.437Z,15.40
2022-08-10T22:25:17.382Z,15.30
2022-08-10T22:28:17.590Z,15.40
2022-08-10T22:31:30.922Z,15.30
2022-08-10T22:34:33.215Z,15.20
2022-08-10T22:37:42.796Z,15.20
2022-08-10T22:40:37.335Z,15.10
2022-08-10T22:43:35.835Z,15.10
2022-08-10T22:46:32.069Z,15.00
2022-08-10T22:49:00.454Z,15.00
2022-08-10T22:51:58.616Z,14.90
2022-08-10T22:55:14.552Z,14.90
2022-08-10T22:58:08.365Z,14.90
2022-08-10T23:00:36.993Z,14.90
2022-08-10T23:03:22.241Z,14.80
2022-08-10T23:05:58.999Z,14.80
2022-08-10T23:08:34.044Z,14.70
2022-08-10T23:11:05.188Z,14.70
2022-08-10T23:13:37.942Z,14.60
2022-08-10T23:16:37.475Z,14.50
2022-08-10T23:19:11.804Z,14.50
2022-08-10T23:22:01.305Z,14.50
2022-08-10T23:24:35.672Z,14.50
2022-08-10T23:27:12.729Z,14.50
2022-08-10T23:30:09.497Z,14.50
2022-08-10T23:32:44.450Z,14.50
2022-08-10T23:36:29.691Z,14.60
2022-08-10T23:38:12.624Z,14.50
2022-08-10T23:40:45.913Z,14.50
2022-08-10T23:43:19.768Z,14.50
2022-08-10T23:45:57.571Z,14.50
2022-08-10T23:48:29.782Z,14.50
2022-08-10T23:51:01.466Z,14.40
2022-08-10T23:53:40.178Z,14.40
2022-08-10T23:56:12.791Z,14.40
2022-08-10T23:58:45.887Z,14.30
